• Join FlightAware (Why Join?)
  • Login
  • US Flag 
01:47PM EDT


 

Airport Tracker/Info


-or-


 

Live Flight TrackerFlight Track Log ✈ UPS9610 ✈ 30-Apr-2012 ✈ KMSP - KSDF

Flight Track Log - Related Links

Times and Time Zones

All times are in EDT time to prevent confusion due to time zone crossing. See the UPS9610 flight status page for this flight to view local times or setup timezone preferences in your user account.

Time Position Orientation Groundspeed Altitude Reporting Facility
EDT Latitude Longitude Course Direction KTS MPH feet Rate Location/Type
07:07PM 43.8597 -92.6475 162° South 466 536 30,800  Level Minneapolis Center
07:08PM 43.7492 -92.5972 173° South 472 543 32,900 1,500 Climbing Minneapolis Center
07:11PM 43.3717 -92.5314 174° South 460 529 37,000 840 Climbing Minneapolis Center
07:13PM 43.1539 -92.4975 173° South 439 505 37,000  Level Chicago Center
07:14PM 43.0294 -92.4769 173° South 444 511 37,000  Level Chicago Center
07:15PM 42.9069 -92.4567 164° South 444 511 37,000  Level Chicago Center
07:16PM 42.7894 -92.4111 149° Southeast 444 511 37,000  Level Chicago Center
07:17PM 42.6772 -92.3181 150° Southeast 455 524 37,000  Level Chicago Center
07:18PM 42.5647 -92.2311 149° Southeast 467 537 37,000  Level Chicago Center
07:19PM 42.4419 -92.1325 149° Southeast 474 545 37,000  Level Chicago Center
07:20PM 42.3294 -92.0406 149° Southeast 474 545 37,000  Level Chicago Center
07:21PM 42.2211 -91.9519 150° Southeast 474 545 37,000  Level Chicago Center
07:23PM 41.9936 -91.7750 149° Southeast 467 537 37,000  Level Chicago Center
07:24PM 41.8828 -91.6872 150° Southeast 467 537 37,000  Level Chicago Center
07:25PM 41.7719 -91.6022 150° Southeast 467 537 37,000  Level Chicago Center
07:26PM 41.6608 -91.5178 150° Southeast 462 532 37,000  Level Chicago Center
07:27PM 41.5542 -91.4339 150° Southeast 457 526 37,000  Level Chicago Center
07:28PM 41.4431 -91.3497 152° Southeast 457 526 37,000  Level Chicago Center
07:29PM 41.3339 -91.2719 149° Southeast 452 520 37,000  Level Chicago Center
07:30PM 41.2269 -91.1858 151° Southeast 452 520 37,000  Level Chicago Center
07:31PM 41.1156 -91.1056 149° Southeast 452 520 37,000  Level Chicago Center
07:32PM 41.0064 -91.0200 151° Southeast 452 520 37,000  Level Chicago Center
07:34PM 40.7264 -90.8169 150° Southeast 457 526 37,000  Level Kansas City Center
07:35PM 40.6175 -90.7350 150° Southeast 457 526 37,000  Level Kansas City Center
07:36PM 40.5089 -90.6536 150° Southeast 451 519 37,000  Level Kansas City Center
07:37PM 40.4000 -90.5725 150° Southeast 451 519 37,000  Level Kansas City Center
07:38PM 40.2908 -90.4914 140° Southeast 451 519 37,000  Level Kansas City Center
07:39PM 40.1936 -90.3856 128° Southeast 451 519 37,000  Level Kansas City Center
07:40PM 40.1117 -90.2494 129° Southeast 456 525 37,000  Level Kansas City Center
07:41PM 40.0300 -90.1161 128° Southeast 466 536 37,000  Level Kansas City Center
07:42PM 39.9500 -89.9828 127° Southeast 466 536 37,000  Level Kansas City Center
07:43PM 39.8717 -89.8472 125° Southeast 471 542 37,000  Level Kansas City Center
07:44PM 39.7978 -89.7117 126° Southeast 465 535 37,000  Level Kansas City Center
07:45PM 39.7236 -89.5789 127° Southeast 465 535 37,000  Level Kansas City Center
07:46PM 39.6492 -89.4492 127° Southeast 459 528 37,000  Level Kansas City Center
07:47PM 39.5750 -89.3200 121° Southeast 459 528 37,000 -60 Level Kansas City Center
07:48PM 39.5106 -89.1819 113° Southeast 459 528 36,900 -600 Descending Kansas City Center
07:49PM 39.4597 -89.0269 112° Southeast 454 522 35,900 -960 Descending Kansas City Center
07:50PM 39.4108 -88.8722 114° Southeast 459 528 35,000 -480 Descending Kansas City Center
07:51PM 39.3600 -88.7231 124° Southeast 459 528 35,000  Level Kansas City Center
07:52PM 39.2908 -88.5892 142° Southeast 454 522 35,000 -240 Level Kansas City Center
07:54PM 39.1550 -88.4525 124° Southeast 421 484 34,500 -1,260 Descending Indianapolis Center
07:55PM 39.0836 -88.3167 117° Southeast 426 490 31,800 -2,640 Descending Indianapolis Center
07:56PM 39.0247 -88.1683 119° Southeast 446 513 29,300 -1,980 Descending Indianapolis Center
07:57PM 38.9636 -88.0253 122° Southeast 460 529 27,900 -1,560 Descending Indianapolis Center
07:58PM 38.8978 -87.8878 121° Southeast 460 529 26,200 -1,620 Descending Indianapolis Center
07:59PM 38.8336 -87.7533 121° Southeast 454 522 24,700 -1,500 Descending Indianapolis Center
08:00PM 38.7717 -87.6219 122° Southeast 442 509 23,200 -1,500 Descending Indianapolis Center
08:01PM 38.7092 -87.4933 121° Southeast 437 503 21,800 -1,440 Descending Indianapolis Center
08:02PM 38.6508 -87.3703 128° Southeast 423 487 20,400 -1,380 Descending Indianapolis Center
08:03PM 38.5833 -87.2581 144° Southeast 416 479 19,100 -1,260 Descending Indianapolis Center
08:04PM 38.4922 -87.1736 143° Southeast 385 443 17,900 -1,200 Descending Indianapolis Center
08:05PM 38.4092 -87.0928 123° Southeast 380 437 16,700 -1,260 Descending Indianapolis Center
08:06PM 38.3519 -86.9786 109° East 375 432 15,400 -1,260 Descending Indianapolis Center
08:07PM 38.3181 -86.8528 107° East 367 422 14,200 -1,140 Descending Indianapolis Center
08:08PM 38.2936 -86.7536 108° East 367 422 13,200 -1,140 Descending Indianapolis Center
08:09PM 38.2578 -86.6144 106° East 373 429 12,000 -1,260 Descending Indianapolis Center
08:10PM 38.2294 -86.4892 84° East 373 429 10,700 -960 Descending Indianapolis Center
08:11PM 38.2408 -86.3442 81° East 339 390 10,000 -900 Descending FAA TRACON SMA TRACON (SMA)
08:11PM 38.2503 -86.2647 81° East 329 379 9,100 -1,740 Descending FAA TRACON SMA TRACON (SMA)
08:12PM 38.2597 -86.1883 81° East 314 361 7,700 -1,920 Descending FAA TRACON SMA TRACON (SMA)
08:13PM 38.2678 -86.1222 81° East 308 354 6,600 -1,440 Descending FAA TRACON SMA TRACON (SMA)
08:13PM 38.2764 -86.0497 78° East 299 344 5,800 -1,200 Descending FAA TRACON SMA TRACON (SMA)
08:14PM 38.2878 -85.9800 71° East 293 337 5,000 -1,080 Descending FAA TRACON SMA TRACON (SMA)
08:15PM 38.3036 -85.9211 71° East 286 329 4,400 -600 Descending FAA TRACON SMA TRACON (SMA)
08:15PM 38.3214 -85.8553 72° East 284 327 4,200 -360 Descending FAA TRACON SMA TRACON (SMA)
08:16PM 38.3364 -85.7978 120° Southeast 280 322 4,000 -180 Descending FAA TRACON SMA TRACON (SMA)
08:17PM 38.3131 -85.7464 148° Southeast 263 303 4,000  Level FAA TRACON SMA TRACON (SMA)
08:17PM 38.2736 -85.7150 148° Southeast 240 276 4,000 -300 Level FAA TRACON SMA TRACON (SMA)
08:18PM 38.2392 -85.6872 147° Southeast 237 273 3,600 -720 Descending FAA TRACON SMA TRACON (SMA)
08:19PM 38.2033 -85.6572 154° Southeast 220 253 3,100 -720 Descending FAA TRACON SMA TRACON (SMA)
08:19PM 38.1719 -85.6375 167° South 205 236 2,700 -480 Descending FAA TRACON SMA TRACON (SMA)
08:20PM 38.1381 -85.6272 207° Southwest 177 204 2,500 -180 Descending FAA TRACON SMA TRACON (SMA)
08:21PM 38.1153 -85.6422 237° Southwest 129 148 2,500 -120 Level FAA TRACON SMA TRACON (SMA)
08:21PM 38.1042 -85.6642 270° West 122 140 2,400 -540 Descending FAA TRACON SMA TRACON (SMA)
08:22PM 38.1042 -85.6914 324° Northwest 129 148 1,800 -780 Descending FAA TRACON SMA TRACON (SMA)
08:23PM 38.1231 -85.7089 345° North 120 138 1,400 -660 Descending FAA TRACON SMA TRACON (SMA)
08:23PM 38.1436 -85.7161 344° North 125 144 1,000 -660 Descending FAA TRACON SMA TRACON (SMA)
08:24PM 38.1611 -85.7225 344° North 120 138 600 -600 Descending FAA TRACON SMA TRACON (SMA)